Time;durP1;ratioP1;P1;durP2;ratioP2;P2;SDS_P1;SDS_P2;PMS_P1;PMS_P2;Temp;Humidity;BMP_temperature;BMP_pressure;BME280_temperature;BME280_humidity;BME280_pressure;Samples;Min_cycle;Max_cycle;Signal;HPM_P1;HPM_P2
2023/04/05 00:00:41;;;;;;;20.95;11.88;;;;;;;;;;4973294;28;20035;-60
2023/04/05 00:03:08;;;;;;;18.38;11.40;;;;;;;;;;4972802;28;20102;-58
2023/04/05 00:05:35;;;;;;;19.20;11.27;;;;;;;;;;4973243;28;20157;-58
2023/04/05 00:08:02;;;;;;;19.45;12.10;;;;;;;;;;4973035;28;20074;-61
2023/04/05 00:10:28;;;;;;;19.00;12.00;;;;;;;;;;4973316;28;20082;-62
2023/04/05 00:12:54;;;;;;;19.83;11.85;;;;;;;;;;4972910;28;20022;-62
2023/04/05 00:15:21;;;;;;;20.33;12.40;;;;;;;;;;4971300;28;20573;-59
2023/04/05 00:17:47;;;;;;;24.77;12.85;;;;;;;;;;4973138;28;20042;-62
2023/04/05 00:20:13;;;;;;;19.63;11.65;;;;;;;;;;4971065;28;20484;-60
2023/04/05 00:22:42;;;;;;;21.42;12.85;;;;;;;;;;4972938;28;20423;-61
2023/04/05 00:25:08;;;;;;;20.70;12.18;;;;;;;;;;4995530;23;20037;-61
2023/04/05 00:27:34;;;;;;;18.77;12.80;;;;;;;;;;4972520;28;20046;-63
2023/04/05 00:30:01;;;;;;;18.60;11.98;;;;;;;;;;4973111;28;20022;-63
2023/04/05 00:32:27;;;;;;;23.80;12.98;;;;;;;;;;4973170;28;20023;-61
2023/04/05 00:34:53;;;;;;;20.63;12.02;;;;;;;;;;4971258;28;20066;-63
2023/04/05 00:37:19;;;;;;;19.38;12.82;;;;;;;;;;4972888;28;20027;-62
2023/04/05 00:39:45;;;;;;;19.48;13.00;;;;;;;;;;4973001;28;20022;-63
2023/04/05 00:42:11;;;;;;;18.23;12.57;;;;;;;;;;4973203;28;20114;-62
2023/04/05 00:44:37;;;;;;;18.50;12.38;;;;;;;;;;4972505;28;20467;-63
2023/04/05 00:47:04;;;;;;;19.75;12.15;;;;;;;;;;4971866;28;20081;-64
2023/04/05 00:49:31;;;;;;;19.40;12.10;;;;;;;;;;4971555;28;20023;-63
2023/04/05 00:51:57;;;;;;;20.42;12.40;;;;;;;;;;4971337;28;20031;-62
2023/04/05 00:54:24;;;;;;;17.85;11.98;;;;;;;;;;4972050;28;20494;-62
2023/04/05 00:56:53;;;;;;;21.30;12.98;;;;;;;;;;4972921;28;20479;-62
2023/04/05 00:59:20;;;;;;;18.95;12.23;;;;;;;;;;4973050;28;20069;-63
2023/04/05 01:01:53;;;;;;;18.27;12.18;;;;;;;;;;4972852;28;20031;-64
2023/04/05 01:04:22;;;;;;;22.17;13.20;;;;;;;;;;4970812;28;20074;-63
2023/04/05 01:07:06;;;;;;;19.52;11.95;;;;;;;;;;4972734;28;20415;-63
2023/04/05 01:09:50;;;;;;;17.55;11.88;;;;;;;;;;4971630;28;20031;-65
2023/04/05 01:12:17;;;;;;;20.38;12.18;;;;;;;;;;4972924;28;20094;-63
2023/04/05 01:14:48;;;;;;;18.95;11.50;;;;;;;;;;4970563;28;20483;-63
2023/04/05 01:17:15;;;;;;;18.00;11.88;;;;;;;;;;4972475;28;20031;-64
2023/04/05 01:19:41;;;;;;;21.10;12.75;;;;;;;;;;4971267;28;20042;-62
2023/04/05 01:22:26;;;;;;;18.92;12.10;;;;;;;;;;4972616;28;20027;-63
2023/04/05 01:25:12;;;;;;;18.98;12.23;;;;;;;;;;4971888;28;20046;-62
2023/04/05 01:27:43;;;;;;;18.60;11.65;;;;;;;;;;4972370;28;20035;-64
2023/04/05 01:30:17;;;;;;;20.85;12.60;;;;;;;;;;4972671;28;20034;-63
2023/04/05 01:32:56;;;;;;;20.63;12.60;;;;;;;;;;4975142;28;20019;-63
2023/04/05 01:35:37;;;;;;;21.02;12.60;;;;;;;;;;4974664;28;20023;-63
2023/04/05 01:38:05;;;;;;;19.55;12.50;;;;;;;;;;4976155;28;20113;-63
2023/04/05 01:40:31;;;;;;;19.73;12.38;;;;;;;;;;4976165;28;20030;-63
2023/04/05 01:42:57;;;;;;;18.25;12.07;;;;;;;;;;4976074;28;20035;-63
2023/04/05 01:45:23;;;;;;;20.20;12.10;;;;;;;;;;4975348;28;20118;-63
2023/04/05 01:47:49;;;;;;;19.92;12.43;;;;;;;;;;4976323;28;20030;-63
2023/04/05 01:50:15;;;;;;;19.15;12.13;;;;;;;;;;4975927;28;20538;-64
2023/04/05 01:52:41;;;;;;;20.23;12.27;;;;;;;;;;4974596;28;20035;-63
2023/04/05 01:55:07;;;;;;;26.08;13.18;;;;;;;;;;4973614;28;20042;-64
2023/04/05 01:57:33;;;;;;;21.77;12.30;;;;;;;;;;4974430;28;20030;-64
2023/04/05 02:00:00;;;;;;;19.98;13.43;;;;;;;;;;4974418;28;20022;-64
2023/04/05 02:02:26;;;;;;;20.08;12.43;;;;;;;;;;4975590;28;20026;-64
2023/04/05 02:04:52;;;;;;;19.83;12.70;;;;;;;;;;4973244;28;20041;-65
2023/04/05 02:07:18;;;;;;;24.65;14.73;;;;;;;;;;4975296;28;20078;-63
2023/04/05 02:09:44;;;;;;;18.83;11.75;;;;;;;;;;4974223;28;20058;-63
2023/04/05 02:12:10;;;;;;;22.90;12.93;;;;;;;;;;4974364;28;20069;-62
2023/04/05 02:14:37;;;;;;;21.27;12.95;;;;;;;;;;4974759;28;20081;-63
2023/04/05 02:17:03;;;;;;;19.08;12.45;;;;;;;;;;4977299;28;20399;-64
2023/04/05 02:19:36;;;;;;;19.35;12.38;;;;;;;;;;4976304;28;20026;-64
2023/04/05 02:22:02;;;;;;;20.40;12.48;;;;;;;;;;4975500;28;20061;-63
2023/04/05 02:24:28;;;;;;;19.27;12.55;;;;;;;;;;4973375;28;20102;-64
2023/04/05 02:26:54;;;;;;;21.98;13.55;;;;;;;;;;4971803;28;20057;-62
2023/04/05 02:29:20;;;;;;;19.90;12.45;;;;;;;;;;4984194;28;20035;-62
2023/04/05 02:31:45;;;;;;;19.92;12.27;;;;;;;;;;4974606;28;20054;-63
2023/04/05 02:34:12;;;;;;;20.48;12.35;;;;;;;;;;4972913;28;20026;-62
2023/04/05 02:36:40;;;;;;;21.60;12.23;;;;;;;;;;4974868;28;20109;-63
2023/04/05 02:39:07;;;;;;;18.98;12.23;;;;;;;;;;4975265;28;20455;-64
2023/04/05 02:41:33;;;;;;;21.15;12.27;;;;;;;;;;4975253;28;20035;-64
2023/04/05 02:43:59;;;;;;;21.15;11.88;;;;;;;;;;4973502;28;20027;-64
2023/04/05 02:46:25;;;;;;;21.55;12.70;;;;;;;;;;4973229;28;20400;-63
2023/04/05 02:48:51;;;;;;;20.52;12.55;;;;;;;;;;4974710;28;20415;-64
2023/04/05 02:51:17;;;;;;;18.83;12.38;;;;;;;;;;4975070;28;20018;-63
2023/04/05 02:53:47;;;;;;;22.77;12.35;;;;;;;;;;4974449;28;20030;-63
2023/04/05 02:56:13;;;;;;;21.30;12.02;;;;;;;;;;4975155;28;20487;-64
2023/04/05 02:58:39;;;;;;;20.92;12.27;;;;;;;;;;4974718;28;20038;-64
2023/04/05 03:01:07;;;;;;;18.88;12.30;;;;;;;;;;4974789;28;20031;-64
2023/04/05 03:03:33;;;;;;;18.67;12.60;;;;;;;;;;4973918;28;20483;-63
2023/04/05 03:06:06;;;;;;;21.88;12.13;;;;;;;;;;4974766;28;20030;-64
2023/04/05 03:08:32;;;;;;;21.65;12.55;;;;;;;;;;4974766;28;20030;-64
2023/04/05 03:10:58;;;;;;;18.08;11.45;;;;;;;;;;4974761;28;20034;-65
2023/04/05 03:13:24;;;;;;;21.17;12.55;;;;;;;;;;4974906;28;20019;-64
2023/04/05 03:15:53;;;;;;;20.13;14.32;;;;;;;;;;4974879;28;20019;-64
2023/04/05 03:18:19;;;;;;;22.77;13.48;;;;;;;;;;4974715;28;20630;-64
2023/04/05 03:20:49;;;;;;;19.55;13.00;;;;;;;;;;4974423;28;20480;-64
2023/04/05 03:23:15;;;;;;;18.58;12.57;;;;;;;;;;4973670;28;20113;-63
2023/04/05 03:25:41;;;;;;;19.33;12.32;;;;;;;;;;4974201;28;20027;-63
2023/04/05 03:28:07;;;;;;;23.90;12.27;;;;;;;;;;4974343;28;20023;-63
2023/04/05 03:30:34;;;;;;;21.65;12.63;;;;;;;;;;4973540;28;20045;-64
2023/04/05 03:33:00;;;;;;;19.65;12.38;;;;;;;;;;4973240;28;20027;-63
2023/04/05 03:35:29;;;;;;;18.70;12.82;;;;;;;;;;4972894;28;20023;-63
2023/04/05 03:37:56;;;;;;;19.77;13.13;;;;;;;;;;4974986;28;20113;-63
2023/04/05 03:40:25;;;;;;;19.80;12.82;;;;;;;;;;4972907;28;20422;-64
2023/04/05 03:42:51;;;;;;;19.27;13.10;;;;;;;;;;4974342;28;20078;-61
2023/04/05 03:45:17;;;;;;;20.40;12.40;;;;;;;;;;4972370;28;20117;-64
2023/04/05 03:47:44;;;;;;;23.35;12.55;;;;;;;;;;4975758;28;20050;-64
2023/04/05 03:50:10;;;;;;;19.38;12.20;;;;;;;;;;4974036;28;20023;-64
2023/04/05 03:52:36;;;;;;;18.02;12.00;;;;;;;;;;4973997;28;20468;-63
2023/04/05 03:55:02;;;;;;;21.30;12.20;;;;;;;;;;4972965;28;20049;-63
2023/04/05 03:57:28;;;;;;;19.40;12.75;;;;;;;;;;4972276;28;20070;-64
2023/04/05 03:59:54;;;;;;;19.98;13.10;;;;;;;;;;4972348;28;20026;-64
2023/04/05 04:02:20;;;;;;;20.13;13.13;;;;;;;;;;4974116;28;20062;-62
2023/04/05 04:04:46;;;;;;;19.00;12.95;;;;;;;;;;4973994;28;20032;-64
2023/04/05 04:07:13;;;;;;;19.98;12.63;;;;;;;;;;4972516;28;20078;-65
2023/04/05 04:09:39;;;;;;;21.48;12.88;;;;;;;;;;4974338;28;20023;-66
2023/04/05 04:12:05;;;;;;;20.55;12.52;;;;;;;;;;4975025;28;20026;-64
2023/04/05 04:14:34;;;;;;;20.40;13.07;;;;;;;;;;4972380;28;20121;-63
2023/04/05 04:17:00;;;;;;;19.52;12.10;;;;;;;;;;4974625;28;20078;-64
2023/04/05 04:19:26;;;;;;;20.35;12.43;;;;;;;;;;4973624;28;20126;-63
2023/04/05 04:21:52;;;;;;;19.60;12.70;;;;;;;;;;4973103;28;20535;-64
2023/04/05 04:24:19;;;;;;;19.33;12.13;;;;;;;;;;4972724;28;20027;-64
2023/04/05 04:26:48;;;;;;;21.00;13.00;;;;;;;;;;4972766;28;20031;-65
2023/04/05 04:29:17;;;;;;;20.27;12.43;;;;;;;;;;4973421;28;20019;-62
2023/04/05 04:31:44;;;;;;;20.13;12.68;;;;;;;;;;4971744;28;20053;-63
2023/04/05 04:34:11;;;;;;;21.00;13.10;;;;;;;;;;4971017;28;20033;-63
2023/04/05 04:36:38;;;;;;;21.65;13.02;;;;;;;;;;4971503;28;20031;-64
2023/04/05 04:39:04;;;;;;;22.05;13.70;;;;;;;;;;4971918;28;20093;-65
2023/04/05 04:41:34;;;;;;;19.27;12.48;;;;;;;;;;4971555;28;20027;-63
2023/04/05 04:44:04;;;;;;;21.77;14.73;;;;;;;;;;4972330;28;20440;-63
2023/04/05 04:46:33;;;;;;;19.23;12.88;;;;;;;;;;4972611;28;20049;-65
2023/04/05 04:49:04;;;;;;;20.10;13.18;;;;;;;;;;4972786;28;20031;-64
2023/04/05 04:51:31;;;;;;;18.55;12.75;;;;;;;;;;4972975;28;20023;-64
2023/04/05 04:53:57;;;;;;;20.95;12.65;;;;;;;;;;4970710;28;20035;-66
2023/04/05 04:56:22;;;;;;;22.50;12.95;;;;;;;;;;4973261;28;20030;-64
2023/04/05 04:58:48;;;;;;;21.13;12.55;;;;;;;;;;4973000;28;20097;-63
2023/04/05 05:01:14;;;;;;;20.50;13.13;;;;;;;;;;4972703;28;20050;-63
2023/04/05 05:03:41;;;;;;;20.23;12.68;;;;;;;;;;4971818;28;20054;-63
2023/04/05 05:06:08;;;;;;;19.50;12.68;;;;;;;;;;4973016;28;20041;-65
2023/04/05 05:08:34;;;;;;;20.30;12.57;;;;;;;;;;4974847;28;20558;-65
2023/04/05 05:11:00;;;;;;;19.08;12.43;;;;;;;;;;4975002;28;20027;-64
2023/04/05 05:13:26;;;;;;;19.63;12.57;;;;;;;;;;4977805;28;20031;-65
2023/04/05 05:15:52;;;;;;;20.40;12.82;;;;;;;;;;4976129;28;20023;-64
2023/04/05 05:18:18;;;;;;;20.83;13.88;;;;;;;;;;4976114;28;20027;-63
2023/04/05 05:20:44;;;;;;;20.98;12.80;;;;;;;;;;4976384;28;20027;-63
2023/04/05 05:23:10;;;;;;;19.65;13.65;;;;;;;;;;4975751;28;20050;-65
2023/04/05 05:25:36;;;;;;;20.92;13.07;;;;;;;;;;4974712;28;20035;-64
2023/04/05 05:28:02;;;;;;;18.25;13.48;;;;;;;;;;4974772;28;20034;-64
2023/04/05 05:30:28;;;;;;;19.35;12.85;;;;;;;;;;4974979;28;20023;-64
2023/04/05 05:32:56;;;;;;;25.15;15.15;;;;;;;;;;4976150;28;20368;-61
2023/04/05 05:35:22;;;;;;;22.23;14.27;;;;;;;;;;4975637;28;20154;-63
2023/04/05 05:37:47;;;;;;;22.02;13.75;;;;;;;;;;4975754;28;20078;-63
2023/04/05 05:40:15;;;;;;;21.05;13.80;;;;;;;;;;4975838;28;20041;-65
2023/04/05 05:42:41;;;;;;;22.02;13.68;;;;;;;;;;4975819;28;20023;-65
2023/04/05 05:45:07;;;;;;;20.52;14.27;;;;;;;;;;4974872;28;20479;-63
2023/04/05 05:47:33;;;;;;;23.17;14.90;;;;;;;;;;4974543;28;20496;-63
2023/04/05 05:49:59;;;;;;;19.67;13.98;;;;;;;;;;4974477;28;20120;-61
2023/04/05 05:52:25;;;;;;;20.98;14.10;;;;;;;;;;4975487;28;20019;-63
2023/04/05 05:54:51;;;;;;;21.40;14.50;;;;;;;;;;4974935;28;20514;-63
2023/04/05 05:57:17;;;;;;;21.67;13.63;;;;;;;;;;4973877;28;20035;-64
2023/04/05 05:59:43;;;;;;;18.65;12.88;;;;;;;;;;4975103;28;20098;-63
2023/04/05 06:02:10;;;;;;;22.65;13.55;;;;;;;;;;4973938;28;20082;-63
2023/04/05 06:04:36;;;;;;;20.85;14.00;;;;;;;;;;4974354;28;20511;-62
2023/04/05 06:07:03;;;;;;;20.15;13.65;;;;;;;;;;4975324;28;20518;-61
2023/04/05 06:09:29;;;;;;;20.50;13.30;;;;;;;;;;4975376;28;20018;-62
2023/04/05 06:11:55;;;;;;;19.60;13.85;;;;;;;;;;4975167;28;20081;-64
2023/04/05 06:14:22;;;;;;;20.45;13.25;;;;;;;;;;4973496;28;20387;-62
2023/04/05 06:16:48;;;;;;;22.67;13.73;;;;;;;;;;4974761;28;20047;-64
2023/04/05 06:19:14;;;;;;;19.52;13.88;;;;;;;;;;4972462;28;20157;-63
2023/04/05 06:21:40;;;;;;;19.52;13.65;;;;;;;;;;4988908;28;20022;-63
2023/04/05 06:24:06;;;;;;;20.27;13.80;;;;;;;;;;4982872;28;20072;-63
2023/04/05 06:26:32;;;;;;;18.42;14.40;;;;;;;;;;5017430;23;20492;-58
2023/04/05 06:28:58;;;;;;;19.15;13.68;;;;;;;;;;5006999;28;20114;-59
2023/04/05 06:31:30;;;;;;;20.02;13.85;;;;;;;;;;5013720;28;20382;-61
2023/04/05 06:33:56;;;;;;;25.10;15.57;;;;;;;;;;5011877;28;20445;-59
2023/04/05 06:36:22;;;;;;;19.17;13.35;;;;;;;;;;5009058;28;20022;-59
2023/04/05 06:38:48;;;;;;;19.80;13.63;;;;;;;;;;4994055;28;20035;-59
2023/04/05 06:41:14;;;;;;;20.33;12.98;;;;;;;;;;4992683;28;20033;-61
2023/04/05 06:43:41;;;;;;;20.00;13.68;;;;;;;;;;4991400;28;20042;-59
2023/04/05 06:46:10;;;;;;;20.83;13.38;;;;;;;;;;4993525;28;20022;-59
2023/04/05 06:48:36;;;;;;;20.30;13.32;;;;;;;;;;4993600;28;20018;-61
2023/04/05 06:51:03;;;;;;;23.25;15.00;;;;;;;;;;4993648;28;20387;-62
2023/04/05 06:53:29;;;;;;;18.60;13.23;;;;;;;;;;4996556;28;20488;-59
2023/04/05 06:55:56;;;;;;;19.08;13.75;;;;;;;;;;5012982;28;20048;-60
2023/04/05 06:58:22;;;;;;;18.80;13.73;;;;;;;;;;5013010;28;20041;-59
2023/04/05 07:00:49;;;;;;;20.33;14.68;;;;;;;;;;5012103;28;20029;-60
2023/04/05 07:03:15;;;;;;;20.38;13.95;;;;;;;;;;5012510;28;20026;-58
2023/04/05 07:05:41;;;;;;;21.88;15.18;;;;;;;;;;5012527;28;20026;-59
2023/04/05 07:08:07;;;;;;;22.23;15.00;;;;;;;;;;5011831;28;20022;-60
2023/04/05 07:10:33;;;;;;;20.23;13.93;;;;;;;;;;5020006;28;20041;-56
2023/04/05 07:12:59;;;;;;;19.05;13.45;;;;;;;;;;5019136;28;20022;-59
2023/04/05 07:15:25;;;;;;;20.73;13.90;;;;;;;;;;5012777;28;20029;-51
2023/04/05 07:17:51;;;;;;;20.05;13.45;;;;;;;;;;5012470;28;20096;-62
2023/04/05 07:20:17;;;;;;;21.52;14.43;;;;;;;;;;5003712;28;20026;-65
2023/04/05 07:22:43;;;;;;;23.77;15.32;;;;;;;;;;4993204;28;20030;-63
2023/04/05 07:25:09;;;;;;;21.38;14.27;;;;;;;;;;4992601;28;20037;-62
2023/04/05 07:27:35;;;;;;;20.65;13.65;;;;;;;;;;4993075;28;20034;-63
2023/04/05 07:30:01;;;;;;;21.20;12.77;;;;;;;;;;4992833;28;20022;-61
2023/04/05 07:32:27;;;;;;;18.25;12.90;;;;;;;;;;4993306;28;20459;-62
2023/04/05 07:34:53;;;;;;;22.30;14.38;;;;;;;;;;4991997;28;20030;-60
2023/04/05 07:37:19;;;;;;;18.70;12.93;;;;;;;;;;4992853;28;20112;-64
2023/04/05 07:39:45;;;;;;;19.08;12.90;;;;;;;;;;4992783;28;20022;-64
2023/04/05 07:42:11;;;;;;;17.85;13.25;;;;;;;;;;4992861;28;20509;-63
2023/04/05 07:44:37;;;;;;;19.35;13.18;;;;;;;;;;4992383;28;20029;-65
2023/04/05 07:47:03;;;;;;;20.70;13.45;;;;;;;;;;4992699;28;20049;-63
2023/04/05 07:49:29;;;;;;;19.67;12.95;;;;;;;;;;4992905;28;20023;-64
2023/04/05 07:51:58;;;;;;;21.27;13.65;;;;;;;;;;4991707;28;20030;-62
2023/04/05 07:54:24;;;;;;;20.23;13.30;;;;;;;;;;5000073;28;20022;-60
2023/04/05 07:56:51;;;;;;;19.48;13.40;;;;;;;;;;5012160;28;20056;-63
2023/04/05 07:59:17;;;;;;;18.92;13.90;;;;;;;;;;5012568;28;20106;-64
2023/04/05 08:01:43;;;;;;;21.38;12.82;;;;;;;;;;5012361;28;20033;-64
2023/04/05 08:04:09;;;;;;;20.95;13.65;;;;;;;;;;5011528;28;20478;-64
2023/04/05 08:06:35;;;;;;;20.85;13.70;;;;;;;;;;5012046;28;20026;-63
2023/04/05 08:09:04;;;;;;;20.48;13.80;;;;;;;;;;5012278;28;20476;-62
2023/04/05 08:11:31;;;;;;;19.80;13.38;;;;;;;;;;5012038;28;20018;-64
2023/04/05 08:13:57;;;;;;;21.15;14.15;;;;;;;;;;5011080;28;20022;-64
2023/04/05 08:16:23;;;;;;;22.30;14.95;;;;;;;;;;5011802;28;20084;-64
2023/04/05 08:18:49;;;;;;;18.75;13.57;;;;;;;;;;5012111;28;20022;-64
2023/04/05 08:21:15;;;;;;;19.63;13.45;;;;;;;;;;4998079;28;20509;-65
2023/04/05 08:23:41;;;;;;;17.38;12.77;;;;;;;;;;4991129;28;20045;-61
2023/04/05 08:26:07;;;;;;;21.17;13.18;;;;;;;;;;4991998;28;20031;-62
2023/04/05 08:28:36;;;;;;;18.80;13.80;;;;;;;;;;4992483;28;20022;-64
2023/04/05 08:31:02;;;;;;;19.38;13.20;;;;;;;;;;4990641;28;20041;-61
2023/04/05 08:33:29;;;;;;;18.30;13.48;;;;;;;;;;4991671;28;20347;-61
2023/04/05 08:35:56;;;;;;;20.95;14.15;;;;;;;;;;4991949;28;20414;-63
2023/04/05 08:38:22;;;;;;;17.65;13.50;;;;;;;;;;4991248;28;20033;-63
2023/04/05 08:40:48;;;;;;;17.55;13.38;;;;;;;;;;4990900;28;20022;-63
2023/04/05 08:43:14;;;;;;;18.45;13.98;;;;;;;;;;4986157;28;20031;-63
2023/04/05 08:45:46;;;;;;;18.65;13.93;;;;;;;;;;4989291;28;20030;-64
2023/04/05 08:48:12;;;;;;;18.60;14.82;;;;;;;;;;4990463;28;20343;-63
2023/04/05 08:50:38;;;;;;;17.38;14.02;;;;;;;;;;4990033;28;20018;-61
2023/04/05 08:53:04;;;;;;;19.00;13.13;;;;;;;;;;4991669;28;20092;-62
2023/04/05 08:55:31;;;;;;;20.15;13.32;;;;;;;;;;4990471;28;20030;-64
2023/04/05 08:57:58;;;;;;;18.38;13.27;;;;;;;;;;4992172;28;20398;-62
2023/04/05 09:00:26;;;;;;;20.23;13.27;;;;;;;;;;4991719;28;20479;-64
2023/04/05 09:02:54;;;;;;;25.07;13.90;;;;;;;;;;4990608;28;20467;-62
2023/04/05 09:05:20;;;;;;;21.00;13.30;;;;;;;;;;4990934;28;20030;-63
2023/04/05 09:07:46;;;;;;;19.83;14.25;;;;;;;;;;4990118;28;20690;-62
2023/04/05 09:10:13;;;;;;;18.02;13.55;;;;;;;;;;4641536;28;10000300;-63
2023/04/05 09:12:40;;;;;;;19.00;13.55;;;;;;;;;;4987061;28;20023;-63
2023/04/05 09:15:07;;;;;;;19.23;13.63;;;;;;;;;;4987861;28;20065;-63
2023/04/05 09:17:33;;;;;;;20.25;13.95;;;;;;;;;;4988591;28;20097;-63
2023/04/05 09:19:59;;;;;;;18.05;13.20;;;;;;;;;;4985998;28;20034;-65
2023/04/05 09:22:25;;;;;;;19.15;14.18;;;;;;;;;;4968963;28;20135;-63
2023/04/05 09:24:51;;;;;;;20.75;14.00;;;;;;;;;;4968128;28;20062;-65
2023/04/05 09:27:19;;;;;;;20.42;14.18;;;;;;;;;;4977848;28;20491;-63
2023/04/05 09:29:46;;;;;;;20.13;14.20;;;;;;;;;;4988642;28;20065;-64
2023/04/05 09:32:13;;;;;;;20.95;14.85;;;;;;;;;;4988409;28;20023;-64
2023/04/05 09:34:39;;;;;;;18.33;13.70;;;;;;;;;;4987577;28;20077;-63
2023/04/05 09:37:15;;;;;;;19.27;13.90;;;;;;;;;;4994258;28;20034;-63
2023/04/05 09:39:41;;;;;;;20.10;13.30;;;;;;;;;;4992006;28;20031;-61
2023/04/05 09:42:09;;;;;;;18.95;13.95;;;;;;;;;;4989073;28;20030;-64
2023/04/05 09:44:53;;;;;;;21.10;14.88;;;;;;;;;;4976517;28;20022;-63
2023/04/05 09:47:21;;;;;;;19.58;14.40;;;;;;;;;;4968673;28;20089;-65
2023/04/05 09:49:47;;;;;;;19.00;14.13;;;;;;;;;;4968418;28;20033;-63
2023/04/05 09:52:23;;;;;;;19.65;14.35;;;;;;;;;;4967879;28;20069;-65
2023/04/05 09:54:51;;;;;;;18.45;13.77;;;;;;;;;;4971797;28;20038;-64
2023/04/05 09:57:20;;;;;;;17.85;13.52;;;;;;;;;;4972002;28;20511;-64
2023/04/05 09:59:47;;;;;;;19.38;13.88;;;;;;;;;;4982592;28;20030;-64
2023/04/05 10:02:13;;;;;;;17.77;13.05;;;;;;;;;;4990651;28;20073;-65
2023/04/05 10:04:43;;;;;;;20.85;13.80;;;;;;;;;;4990765;28;20030;-62
2023/04/05 10:07:13;;;;;;;23.25;15.57;;;;;;;;;;4992625;28;20038;-61
2023/04/05 10:09:41;;;;;;;19.88;14.27;;;;;;;;;;4992641;28;20066;-63
2023/04/05 10:12:08;;;;;;;21.40;14.07;;;;;;;;;;4993909;28;20022;-64
2023/04/05 10:14:38;;;;;;;20.33;13.80;;;;;;;;;;4992205;28;20037;-62
2023/04/05 10:17:08;;;;;;;21.08;14.00;;;;;;;;;;4997098;28;20598;-63
2023/04/05 10:19:41;;;;;;;20.10;13.98;;;;;;;;;;5003121;28;20494;-63
2023/04/05 10:22:14;;;;;;;19.10;13.55;;;;;;;;;;4996763;28;20030;-64
2023/04/05 10:24:46;;;;;;;18.85;14.15;;;;;;;;;;4983768;28;20035;-63
2023/04/05 10:27:27;;;;;;;20.10;14.63;;;;;;;;;;4993675;28;20036;-64
2023/04/05 10:30:07;;;;;;;17.55;12.68;;;;;;;;;;4994253;28;20069;-63
2023/04/05 10:32:48;;;;;;;18.77;13.02;;;;;;;;;;4989779;28;20398;-63
2023/04/05 10:35:38;;;;;;;20.73;13.82;;;;;;;;;;4979447;28;20502;-65
2023/04/05 10:38:12;;;;;;;17.10;12.68;;;;;;;;;;4974719;28;20034;-64
2023/04/05 10:40:39;;;;;;;18.60;13.63;;;;;;;;;;4994113;28;20029;-63
2023/04/05 10:43:06;;;;;;;17.73;12.95;;;;;;;;;;4993065;28;20506;-64
2023/04/05 10:45:33;;;;;;;18.45;13.63;;;;;;;;;;4993694;28;20045;-65
2023/04/05 10:48:15;;;;;;;20.77;13.43;;;;;;;;;;4993799;28;20491;-65
2023/04/05 10:50:41;;;;;;;19.98;13.27;;;;;;;;;;4993831;28;20044;-63
2023/04/05 10:53:08;;;;;;;19.27;13.98;;;;;;;;;;4992335;28;20023;-64
2023/04/05 10:55:35;;;;;;;20.38;12.95;;;;;;;;;;4992988;28;20073;-64
2023/04/05 10:58:02;;;;;;;17.20;12.80;;;;;;;;;;4992398;28;20491;-63
2023/04/05 11:00:28;;;;;;;19.08;12.93;;;;;;;;;;4993662;28;20022;-63
2023/04/05 11:02:57;;;;;;;21.65;12.80;;;;;;;;;;4993237;28;20031;-63
2023/04/05 11:05:34;;;;;;;19.48;13.52;;;;;;;;;;4992130;28;20486;-63
2023/04/05 11:08:02;;;;;;;21.08;13.15;;;;;;;;;;4993580;28;20057;-64
2023/04/05 11:10:29;;;;;;;18.58;13.30;;;;;;;;;;4992221;28;20113;-63
2023/04/05 11:12:55;;;;;;;19.45;13.25;;;;;;;;;;4991741;28;20026;-62
2023/04/05 11:15:27;;;;;;;18.05;14.02;;;;;;;;;;4992667;28;20037;-66
2023/04/05 11:18:11;;;;;;;18.60;13.35;;;;;;;;;;4992996;28;20085;-63
2023/04/05 11:20:43;;;;;;;18.83;13.85;;;;;;;;;;4993119;28;20499;-64
2023/04/05 11:23:10;;;;;;;20.33;14.63;;;;;;;;;;4992533;28;20034;-63
2023/04/05 11:25:40;;;;;;;18.30;14.48;;;;;;;;;;4992781;28;20041;-65
2023/04/05 11:28:10;;;;;;;19.60;14.88;;;;;;;;;;4643246;28;9999732;-65
2023/04/05 11:30:55;;;;;;;19.75;14.27;;;;;;;;;;4990486;28;20026;-65
2023/04/05 11:33:36;;;;;;;19.90;14.60;;;;;;;;;;4991257;28;20919;-63
2023/04/05 11:36:03;;;;;;;17.92;14.05;;;;;;;;;;4992597;28;20033;-65
2023/04/05 11:38:29;;;;;;;18.95;15.38;;;;;;;;;;4992701;28;20038;-65
2023/04/05 11:41:16;;;;;;;20.23;14.68;;;;;;;;;;4992655;28;20026;-64
2023/04/05 11:43:42;;;;;;;19.63;14.60;;;;;;;;;;4990682;28;20023;-64
2023/04/05 11:46:09;;;;;;;21.30;17.52;;;;;;;;;;4992327;28;20030;-64
2023/04/05 11:48:35;;;;;;;18.52;14.88;;;;;;;;;;4992692;28;20085;-65
2023/04/05 11:51:06;;;;;;;18.60;15.50;;;;;;;;;;4992447;28;20023;-62
2023/04/05 11:53:32;;;;;;;19.05;15.40;;;;;;;;;;4991533;28;20030;-62
2023/04/05 11:56:05;;;;;;;19.05;15.35;;;;;;;;;;4991190;28;20034;-65
2023/04/05 11:58:31;;;;;;;18.85;15.75;;;;;;;;;;4991317;28;20033;-63
2023/04/05 12:01:08;;;;;;;18.58;15.30;;;;;;;;;;4992114;28;20395;-63
2023/04/05 12:03:35;;;;;;;19.20;15.77;;;;;;;;;;4991383;28;20498;-65
2023/04/05 12:06:01;;;;;;;23.35;16.30;;;;;;;;;;4981426;28;20038;-64
2023/04/05 12:08:49;;;;;;;20.33;16.20;;;;;;;;;;4991719;28;20033;-63
2023/04/05 12:11:25;;;;;;;19.05;15.25;;;;;;;;;;4993870;28;20398;-63
2023/04/05 12:14:01;;;;;;;20.35;15.02;;;;;;;;;;4993418;28;20034;-62
2023/04/05 12:16:28;;;;;;;20.48;15.70;;;;;;;;;;4993678;28;20030;-64
2023/04/05 12:18:55;;;;;;;18.98;16.30;;;;;;;;;;4993018;28;20053;-63
2023/04/05 12:21:21;;;;;;;20.55;15.15;;;;;;;;;;4992738;28;20080;-64
2023/04/05 12:23:47;;;;;;;19.05;15.00;;;;;;;;;;4992601;28;20037;-64
2023/04/05 12:28:50;;;;;;;18.90;15.85;;;;;;;;;;5007211;28;20045;-62
2023/04/05 12:31:34;;;;;;;19.13;15.73;;;;;;;;;;5010923;28;20090;-64
2023/04/05 12:34:00;;;;;;;18.63;15.35;;;;;;;;;;5010003;28;20152;-62
2023/04/05 12:36:30;;;;;;;18.92;15.45;;;;;;;;;;5010495;28;20036;-66
2023/04/05 12:38:57;;;;;;;18.15;15.50;;;;;;;;;;5010896;28;20042;-64
2023/04/05 12:41:29;;;;;;;20.23;15.63;;;;;;;;;;5010899;28;20086;-65
2023/04/05 12:44:04;;;;;;;18.25;14.73;;;;;;;;;;5010544;28;20198;-63
2023/04/05 12:46:42;;;;;;;18.63;15.27;;;;;;;;;;5010792;28;20111;-67
2023/04/05 12:49:18;;;;;;;20.17;15.65;;;;;;;;;;4993074;28;20414;-64
2023/04/05 12:51:47;;;;;;;19.80;16.30;;;;;;;;;;5005279;28;20088;-65
2023/04/05 12:54:13;;;;;;;20.83;15.93;;;;;;;;;;4992443;28;20472;-65
2023/04/05 12:56:40;;;;;;;19.38;15.30;;;;;;;;;;5010085;28;20148;-63
2023/04/05 12:59:06;;;;;;;20.55;15.13;;;;;;;;;;5000589;28;20038;-65
2023/04/05 13:01:33;;;;;;;18.98;15.15;;;;;;;;;;5009959;28;20029;-65
2023/04/05 13:04:04;;;;;;;18.42;15.00;;;;;;;;;;4999592;28;20029;-63
2023/04/05 13:06:30;;;;;;;19.63;15.80;;;;;;;;;;5009688;28;20025;-62
2023/04/05 13:08:56;;;;;;;20.42;15.50;;;;;;;;;;5010101;28;20543;-61
2023/04/05 13:11:22;;;;;;;20.02;16.00;;;;;;;;;;5010096;28;20575;-63
2023/04/05 13:13:48;;;;;;;19.98;15.43;;;;;;;;;;4998032;28;20029;-64
2023/04/05 13:16:15;;;;;;;18.45;15.38;;;;;;;;;;4312554;28;10000658;-65
2023/04/05 13:18:41;;;;;;;19.67;16.15;;;;;;;;;;5008511;28;20029;-65
2023/04/05 13:21:08;;;;;;;18.58;15.20;;;;;;;;;;5007442;28;20022;-65
2023/04/05 13:23:34;;;;;;;19.48;15.30;;;;;;;;;;5006262;28;20026;-65
2023/04/05 13:26:00;;;;;;;18.55;15.52;;;;;;;;;;4990000;28;20033;-64
2023/04/05 13:28:26;;;;;;;20.13;15.68;;;;;;;;;;5009189;28;20029;-66
2023/04/05 13:30:52;;;;;;;20.92;15.38;;;;;;;;;;5010818;28;20021;-63
2023/04/05 13:33:19;;;;;;;21.70;15.68;;;;;;;;;;5003009;28;20022;-65
2023/04/05 13:35:45;;;;;;;18.00;15.07;;;;;;;;;;5010553;28;20543;-65
2023/04/05 13:38:11;;;;;;;20.25;15.85;;;;;;;;;;5009592;28;20147;-64
2023/04/05 13:40:38;;;;;;;18.17;14.85;;;;;;;;;;5005939;28;20021;-64
2023/04/05 13:43:04;;;;;;;19.58;15.13;;;;;;;;;;5011261;28;20030;-64
2023/04/05 13:45:33;;;;;;;18.25;15.20;;;;;;;;;;5006329;28;20105;-66
2023/04/05 13:48:01;;;;;;;19.30;15.98;;;;;;;;;;5011719;28;20032;-62
2023/04/05 13:50:27;;;;;;;17.40;15.07;;;;;;;;;;5001561;28;20139;-65
2023/04/05 13:52:53;;;;;;;18.15;14.98;;;;;;;;;;5012985;28;20057;-64
2023/04/05 13:55:19;;;;;;;18.58;14.73;;;;;;;;;;5012315;28;20042;-62
2023/04/05 13:57:45;;;;;;;18.10;14.88;;;;;;;;;;4648389;28;10000110;-62
2023/04/05 14:00:12;;;;;;;18.75;14.95;;;;;;;;;;5010134;28;20037;-64
2023/04/05 14:02:38;;;;;;;18.67;14.80;;;;;;;;;;5010579;28;20030;-62
2023/04/05 14:05:04;;;;;;;18.15;14.90;;;;;;;;;;5009711;28;20066;-60
2023/04/05 14:07:30;;;;;;;19.30;15.43;;;;;;;;;;5000359;28;20018;-63
2023/04/05 14:09:56;;;;;;;19.10;15.45;;;;;;;;;;5000863;28;20048;-58
2023/04/05 14:12:25;;;;;;;18.02;14.63;;;;;;;;;;5010535;28;20567;-64
2023/04/05 14:14:51;;;;;;;21.08;15.20;;;;;;;;;;5009621;28;20419;-61
2023/04/05 14:17:17;;;;;;;18.17;15.93;;;;;;;;;;5010100;28;20041;-58
2023/04/05 14:19:43;;;;;;;19.85;15.75;;;;;;;;;;4999175;28;20034;-66
2023/04/05 14:22:09;;;;;;;20.90;17.00;;;;;;;;;;5010262;28;20029;-62